Terminal Aerodrome Forecast
Issued by NWS Topeka, KS

Home | Current Version | Previous Version | Graphics & Text | Print | Product List | Glossary On
Versions: 1 2 3 4 5 6 7 8 9 10 11 12 13 14 15 16 17 18 19 20 21 22 23 24 25 26 27
000
FTUS43 KTOP 151400 AAA
TAFTOP
TAF AMD
KTOP 151413Z 1514/1612 23008KT P6SM SCT015 BKN080
     FM151430 35010KT P6SM VCSH BKN015
     FM151900 01011KT P6SM SCT035
     FM160100 03003KT P6SM SKC=

USA.gov is the U.S. government's official web portal to all federal, state and local government web resources and services.